Flight Track Log - Related Links

Times and Time Zones

All times are in EDT time to prevent confusion due to time zone crossing. See the WAV757 flight status page for this flight to view local times or setup timezone preferences in your user account.

Time Position Orientation Groundspeed Altitude Reporting Facility
EDT Latitude Longitude Course Direction KTS MPH feet Rate Location/Type
Sat 01:44:43 PM 65.1167 -151.5500 97° East 140 161 7,000  Level Anchorage Center
Sat 01:45:43 PM 65.1167 -151.4500 90° East 170 196 7,000  Level Anchorage Center
Sat 01:46:43 PM 65.1000 -151.3333 109° East 170 196 7,000  Level Anchorage Center
Sat 01:47:43 PM 65.0833 -151.2167 109° East 170 196 7,000  Level Anchorage Center
Sat 01:48:43 PM 65.0833 -151.1000 90° East 180 207 7,000  Level Anchorage Center
Sat 01:49:44 PM 65.0667 -150.9833 109° East 180 207 7,000  Level Anchorage Center
Sat 01:50:00 PM 65.1197 -151.4711 97° East  Level FlightAware Approximate
Sat 01:50:43 PM 65.0667 -150.8667 90° East 180 207 7,000  Level Anchorage Center
Sat 01:51:44 PM 65.0500 -150.7500 109° East 180 207 7,000  Level Anchorage Center
Sat 01:52:44 PM 65.0500 -150.6333 90° East 170 196 7,000  Level Anchorage Center
Sat 01:53:44 PM 65.0333 -150.5167 109° East 180 207 7,000  Level Anchorage Center
Sat 01:54:44 PM 65.0333 -150.4167 90° East 170 196 7,000  Level Anchorage Center
Sat 01:55:44 PM 65.0167 -150.3000 109° East 170 196 7,000  Level Anchorage Center
Sat 01:56:44 PM 65.0167 -150.1833 90° East 170 196 7,000  Level Anchorage Center
Sat 01:57:44 PM 65.0000 -150.0833 111° Southeast 170 196 7,000  Level Anchorage Center
Sat 01:58:45 PM 65.0000 -149.9667 90° East 170 196 7,000  Level Anchorage Center
Sat 01:59:45 PM 64.9833 -149.8500 109° East 180 207 7,000  Level Anchorage Center
Sat 02:00:45 PM 64.9833 -149.7333 90° East 180 207 7,000  Level Anchorage Center
Sat 02:01:45 PM 64.9667 -149.6167 109° East 170 196 7,000  Level Anchorage Center
Sat 02:02:45 PM 64.9500 -149.5167 111° Southeast 180 207 7,000  Level Anchorage Center
Sat 02:04:00 PM 64.9409 -149.3862 99° East  Level FlightAware Approximate
Sat 02:11:00 PM 64.8848 -148.6602 108° East  Level FlightAware Approximate
Sat 02:12:00 PM 64.8705 -148.5602 109° East  Level FlightAware Approximate
Sat 02:13:00 PM 64.8601 -148.4578 101° East  Level FlightAware Approximate
Sat 02:14:00 PM 64.8512 -148.3546 102° East  Level FlightAware Approximate
Sat 02:15:00 PM 64.8421 -148.2514 102° East  Level FlightAware Approximate
Sat 02:16:00 PM 64.8329 -148.1483 102° East  Level FlightAware Approximate
Sat 02:17:00 PM 64.8237 -148.0453 102° East  Level FlightAware Approximate
Sat 02:18:00 PM 64.8133 -147.9430 109° East  Level FlightAware Approximate
Sat 02:19:00 PM 64.8000 -147.8500 109° East  Level FlightAware Approximate
Sat 02:20:00 PM 64.8151 -147.8564 109° East  Level Estimated
Sat 02:21:00 PM 64.8151 -147.8564 109° East  Level Estimated
Sat 02:22:00 PM 64.8151 -147.8564 109° East  Level Estimated
Sat 02:23:00 PM 64.8151 -147.8564 109° East  Level Estimated
Sat 02:24:00 PM 64.8151 -147.8564 109° East  Level Estimated
Sat 02:25:00 PM 64.8151 -147.8564 109° East  Level Estimated
Sat 02:26:00 PM 64.8151 -147.8564 109° East  Level Estimated
Sat 02:27:00 PM 64.8151 -147.8564 109° East  Level Estimated
Sat 02:28:00 PM 64.8151 -147.8564 109° East  Level Estimated
Sat 02:29:00 PM 64.8151 -147.8564 109° East  Level Estimated
Sat 02:30:00 PM 64.8151 -147.8564 109° East  Level Estimated
Sat 02:31:00 PM 64.8151 -147.8564 109° East  Level Estimated
Sat 02:32:00 PM 64.8151 -147.8564 109° East  Level Estimated
Sat 02:33:00 PM 64.8151 -147.8564 109° East  Level Estimated
Sat 02:34:00 PM 64.8151 -147.8564 109° East  Level Estimated
Sat 02:35:00 PM 64.8151 -147.8564 109° East  Level Estimated
Sat 02:36:00 PM 64.8151 -147.8564 109° East  Level Estimated
Sat 02:37:00 PM 64.8151 -147.8564 109° East  Level Estimated
Sat 02:38:00 PM 64.8151 -147.8564 109° East  Level Estimated
Sat 02:39:00 PM 64.8151 -147.8564 109° East  Level Estimated
Sat 02:40:00 PM 64.8151 -147.8564 109° East  Level Estimated

Login

Don't have an account? Register now (free) for customized features, flight alerts, and more!